Summerville, South Carolina
Current Conditions -  °F | °C
As of 12:55 PM on Friday 28 Nov 2014 (Local Time) from KDYB Reporting Station
Clear Clear  
Wind Chill: 42°   Ceiling: Unl
Heat Index: 46°   Visibility: 10mi
Dew Point: 27°   Wind: 9mph
Humidity: 46%   Direction: 360°N
Pressure: 30.36"   Gusts: NA
Location:  33.02°N, 80.18°W
Report Text: KDYB 281755Z AUTO 36008KT 10SM CLR 08/M03 A3036 RMK AO1
Loading
Personal Weather Stations






























Interactive Weather Map New forecast layout! Learn more

10-Day Weather Forecast

Advertisements
Track Severe Weather on mobile